createdAt,value
2023-06-11T00:00:51.840Z,77.56
2023-06-11T00:01:55.326Z,77.71
2023-06-11T00:02:59.366Z,77.96
2023-06-11T00:04:03.366Z,78.17
2023-06-11T00:05:10.262Z,77.98
2023-06-11T00:06:14.180Z,78.08
2023-06-11T00:07:18.062Z,77.91
2023-06-11T00:08:21.921Z,77.91
2023-06-11T00:09:25.709Z,77.76
2023-06-11T00:10:30.070Z,77.76
2023-06-11T00:11:33.124Z,77.79
2023-06-11T00:12:36.584Z,77.34
2023-06-11T00:13:40.281Z,77.47
2023-06-11T00:14:44.201Z,77.57
2023-06-11T00:15:47.607Z,77.53
2023-06-11T00:16:50.973Z,77.79
2023-06-11T00:17:54.422Z,78.30
2023-06-11T00:18:57.517Z,79.25
2023-06-11T00:20:05.292Z,79.04
2023-06-11T00:21:10.279Z,79.06
2023-06-11T00:22:13.947Z,79.09
2023-06-11T00:23:16.776Z,79.65
2023-06-11T00:24:20.295Z,79.42
2023-06-11T00:25:23.769Z,79.55
2023-06-11T00:26:27.969Z,79.48
2023-06-11T00:27:31.541Z,79.39
2023-06-11T00:28:35.190Z,79.26
2023-06-11T00:29:38.371Z,79.86
2023-06-11T00:30:41.732Z,79.88
2023-06-11T00:31:45.009Z,81.05
2023-06-11T00:32:48.212Z,81.52
2023-06-11T00:33:51.679Z,81.31
2023-06-11T00:34:55.007Z,81.36
2023-06-11T00:35:58.290Z,81.60
2023-06-11T00:37:01.392Z,81.48
2023-06-11T00:38:05.130Z,81.18
2023-06-11T00:39:08.876Z,80.98
2023-06-11T00:40:13.538Z,81.32
2023-06-11T00:41:17.278Z,81.45
2023-06-11T00:42:21.100Z,82.15
2023-06-11T00:43:25.825Z,82.12
2023-06-11T00:44:31.571Z,82.08
2023-06-11T00:45:36.857Z,81.82
2023-06-11T00:46:43.542Z,81.95
2023-06-11T00:47:46.993Z,82.42
2023-06-11T00:48:51.689Z,82.99
2023-06-11T00:49:55.799Z,82.83
2023-06-11T00:50:58.974Z,82.89
2023-06-11T00:52:02.580Z,83.25
2023-06-11T00:53:06.108Z,84.01
2023-06-11T00:54:23.467Z,84.23
2023-06-11T00:55:27.383Z,84.28
2023-06-11T00:56:31.301Z,84.53
2023-06-11T00:57:37.158Z,84.62
2023-06-11T00:58:41.917Z,84.69
2023-06-11T00:59:50.075Z,85.15
2023-06-11T01:00:57.380Z,84.90
2023-06-11T01:02:18.864Z,85.31
2023-06-11T01:03:23.734Z,85.49
2023-06-11T01:04:27.391Z,85.46
2023-06-11T01:05:33.656Z,85.18
2023-06-11T01:06:38.172Z,85.27
2023-06-11T01:07:52.566Z,84.88
2023-06-11T01:09:02.756Z,85.26
2023-06-11T01:10:11.022Z,85.35
2023-06-11T01:11:24.990Z,85.16
2023-06-11T01:12:34.020Z,85.28
2023-06-11T01:13:38.458Z,85.15
2023-06-11T01:14:41.816Z,84.98
2023-06-11T01:15:44.803Z,84.93
2023-06-11T01:17:10.624Z,85.02
2023-06-11T01:18:20.760Z,85.00
2023-06-11T01:20:05.391Z,85.08
2023-06-11T01:21:19.480Z,84.97
2023-06-11T01:22:52.426Z,84.87
2023-06-11T01:24:24.417Z,84.70
2023-06-11T01:25:39.591Z,84.72
2023-06-11T01:27:06.940Z,84.70
2023-06-11T01:28:11.765Z,84.33
2023-06-11T01:29:15.429Z,84.11
2023-06-11T01:30:22.228Z,83.90
2023-06-11T01:31:28.236Z,83.89
2023-06-11T01:32:32.368Z,83.83
2023-06-11T01:33:38.351Z,83.61
2023-06-11T01:34:44.754Z,83.42
2023-06-11T01:35:59.551Z,83.22
2023-06-11T01:37:07.656Z,83.17
2023-06-11T01:38:11.587Z,83.02
2023-06-11T01:39:26.827Z,83.15
2023-06-11T01:40:36.304Z,83.01
2023-06-11T01:41:40.299Z,83.07
2023-06-11T01:42:45.057Z,83.48
2023-06-11T01:43:48.299Z,83.28
2023-06-11T01:44:51.615Z,83.46
2023-06-11T01:45:57.830Z,83.39
2023-06-11T01:47:01.538Z,83.36
2023-06-11T01:48:04.940Z,83.53
2023-06-11T01:49:09.129Z,83.66
2023-06-11T01:50:14.316Z,83.82
2023-06-11T01:51:17.879Z,84.02
2023-06-11T01:52:21.762Z,84.11
2023-06-11T01:53:25.179Z,84.53
2023-06-11T01:54:29.033Z,85.16
2023-06-11T01:55:32.554Z,85.50
2023-06-11T01:56:36.051Z,85.60
2023-06-11T01:57:39.379Z,85.91
2023-06-11T01:58:47.095Z,85.85
2023-06-11T01:59:51.050Z,85.86
2023-06-11T02:00:54.977Z,85.79
2023-06-11T02:01:58.419Z,85.53
2023-06-11T02:03:04.082Z,85.42
2023-06-11T02:04:07.312Z,85.61
2023-06-11T02:05:11.133Z,85.72
2023-06-11T02:06:14.917Z,85.82
2023-06-11T02:07:18.402Z,85.88
2023-06-11T02:08:22.610Z,85.48
2023-06-11T02:09:26.056Z,85.18
2023-06-11T02:10:29.176Z,85.37
2023-06-11T02:11:33.048Z,85.28
2023-06-11T02:12:37.122Z,85.16
2023-06-11T02:13:40.369Z,85.20
2023-06-11T02:14:44.070Z,85.43
2023-06-11T02:15:47.637Z,85.70
2023-06-11T02:16:52.190Z,85.86
2023-06-11T02:17:56.077Z,85.83
2023-06-11T02:18:59.776Z,85.61
2023-06-11T02:20:07.548Z,85.60
2023-06-11T02:21:11.059Z,85.49
2023-06-11T02:22:14.365Z,85.09
2023-06-11T02:23:17.807Z,84.81
2023-06-11T02:24:22.072Z,84.57
2023-06-11T02:25:25.651Z,84.59
2023-06-11T02:26:31.067Z,84.71
2023-06-11T02:27:34.720Z,84.90
2023-06-11T02:28:39.812Z,85.15
2023-06-11T02:29:43.801Z,85.55
2023-06-11T02:30:47.502Z,85.89
2023-06-11T02:31:51.622Z,85.79
2023-06-11T02:32:55.186Z,85.79
2023-06-11T02:33:58.597Z,85.68
2023-06-11T02:35:01.973Z,85.63
2023-06-11T02:36:05.971Z,85.90
2023-06-11T02:37:10.574Z,85.83
2023-06-11T02:38:13.855Z,85.81
2023-06-11T02:39:16.970Z,85.56
2023-06-11T02:40:20.080Z,85.62
2023-06-11T02:41:23.409Z,85.69
2023-06-11T02:42:26.634Z,85.52
2023-06-11T02:43:29.894Z,85.47
2023-06-11T02:44:33.464Z,85.48
2023-06-11T02:45:37.497Z,85.56
2023-06-11T02:46:41.617Z,85.34
2023-06-11T02:47:45.062Z,85.10
2023-06-11T02:48:48.541Z,85.07
2023-06-11T02:49:52.166Z,84.83
2023-06-11T02:50:55.987Z,84.90
2023-06-11T02:51:59.705Z,84.99
2023-06-11T02:53:03.371Z,85.10
2023-06-11T02:54:06.737Z,85.15
2023-06-11T02:55:10.601Z,85.18
2023-06-11T02:56:14.480Z,85.24
2023-06-11T02:57:18.012Z,85.12
2023-06-11T02:58:21.698Z,85.17
2023-06-11T02:59:24.721Z,85.11
2023-06-11T03:00:28.267Z,84.97
2023-06-11T03:01:31.636Z,84.94
2023-06-11T03:02:34.960Z,84.79
2023-06-11T03:03:38.167Z,84.71
2023-06-11T03:04:41.671Z,84.44
2023-06-11T03:05:45.144Z,84.41
2023-06-11T03:06:48.922Z,84.58
2023-06-11T03:07:52.594Z,84.67
2023-06-11T03:08:56.192Z,84.43
2023-06-11T03:09:59.592Z,84.47
2023-06-11T03:11:02.758Z,84.57
2023-06-11T03:12:14.665Z,84.39
2023-06-11T03:13:18.085Z,84.51
2023-06-11T03:14:26.567Z,84.49
2023-06-11T03:15:30.393Z,84.47
2023-06-11T03:16:35.116Z,84.53
2023-06-11T03:17:38.716Z,84.48
2023-06-11T03:18:43.347Z,84.60
2023-06-11T03:19:46.459Z,84.61
2023-06-11T03:20:50.278Z,84.79
2023-06-11T03:21:54.122Z,84.81
2023-06-11T03:22:57.187Z,84.18
2023-06-11T03:24:00.789Z,84.03
2023-06-11T03:25:04.526Z,84.31
2023-06-11T03:26:11.917Z,84.54
2023-06-11T03:27:19.837Z,84.67
2023-06-11T03:28:23.497Z,85.05
2023-06-11T03:29:27.258Z,85.11
2023-06-11T03:30:33.471Z,84.83
2023-06-11T03:31:40.664Z,85.02
2023-06-11T03:32:44.422Z,84.90
2023-06-11T03:33:49.166Z,85.03
2023-06-11T03:34:54.623Z,84.96
2023-06-11T03:36:00.241Z,85.20
2023-06-11T03:37:03.951Z,85.26
2023-06-11T03:38:07.587Z,85.32
2023-06-11T03:39:11.797Z,85.41
2023-06-11T03:40:15.419Z,85.54
2023-06-11T03:41:18.682Z,85.38
2023-06-11T03:42:21.967Z,85.53
2023-06-11T03:43:25.783Z,85.30
2023-06-11T03:44:29.146Z,85.32
2023-06-11T03:45:32.745Z,85.43
2023-06-11T03:46:36.178Z,85.09
2023-06-11T03:47:39.606Z,85.20
2023-06-11T03:48:42.687Z,85.40
2023-06-11T03:49:46.289Z,85.53
2023-06-11T03:50:50.124Z,85.42
2023-06-11T03:51:53.596Z,85.35
2023-06-11T03:52:56.936Z,85.41
2023-06-11T03:54:01.196Z,85.65
2023-06-11T03:55:04.631Z,85.59
2023-06-11T03:56:07.941Z,85.46
2023-06-11T03:57:12.259Z,85.31
2023-06-11T03:58:15.950Z,85.13
2023-06-11T03:59:19.476Z,85.12
2023-06-11T04:00:23.321Z,85.09
2023-06-11T04:01:26.875Z,85.26
2023-06-11T04:02:31.186Z,85.19
2023-06-11T04:03:35.107Z,85.28
2023-06-11T04:04:39.034Z,85.27
2023-06-11T04:05:43.673Z,85.32
2023-06-11T04:06:47.661Z,85.80
2023-06-11T04:07:52.474Z,85.93
2023-06-11T04:08:56.665Z,86.52
2023-06-11T04:10:00.568Z,86.76
2023-06-11T04:11:04.267Z,86.89
2023-06-11T04:12:08.237Z,86.99
2023-06-11T04:13:12.229Z,86.95
2023-06-11T04:14:16.446Z,86.90
2023-06-11T04:15:19.837Z,86.97
2023-06-11T04:16:24.028Z,87.44
2023-06-11T04:17:27.985Z,87.46
2023-06-11T04:18:31.377Z,87.70
2023-06-11T04:19:35.273Z,87.74
2023-06-11T04:20:39.333Z,87.92
2023-06-11T04:21:43.255Z,88.12
2023-06-11T04:22:46.870Z,88.25
2023-06-11T04:23:50.221Z,88.28
2023-06-11T04:24:55.304Z,88.50
2023-06-11T04:25:59.732Z,88.10
2023-06-11T04:27:08.896Z,88.32
2023-06-11T04:28:12.630Z,88.49
2023-06-11T04:29:17.864Z,88.55
2023-06-11T04:30:22.529Z,88.50
2023-06-11T04:31:29.498Z,88.49
2023-06-11T04:32:36.872Z,88.32
2023-06-11T04:33:42.485Z,88.59
2023-06-11T04:34:50.298Z,88.39
2023-06-11T04:35:54.764Z,88.17
2023-06-11T04:36:59.184Z,88.19
2023-06-11T04:38:05.180Z,88.32
2023-06-11T04:39:09.746Z,88.22
2023-06-11T04:40:15.150Z,88.16
2023-06-11T04:41:19.636Z,87.43
2023-06-11T04:42:28.135Z,87.07
2023-06-11T04:43:35.239Z,87.14
2023-06-11T04:44:39.152Z,87.41
2023-06-11T04:45:44.655Z,87.90
2023-06-11T04:46:49.501Z,88.52
2023-06-11T04:47:53.720Z,88.94
2023-06-11T04:49:01.359Z,88.92
2023-06-11T04:50:06.850Z,88.72
2023-06-11T04:51:13.791Z,89.07
2023-06-11T04:52:20.592Z,89.24
2023-06-11T04:53:24.519Z,88.92
2023-06-11T04:54:30.182Z,88.88
2023-06-11T04:55:40.534Z,88.75
2023-06-11T04:56:43.882Z,88.39
2023-06-11T04:57:48.475Z,88.08
2023-06-11T04:58:52.421Z,88.09
2023-06-11T04:59:55.657Z,88.03
2023-06-11T05:00:59.516Z,88.21
2023-06-11T05:02:03.589Z,88.12
2023-06-11T05:03:09.102Z,87.87
2023-06-11T05:04:16.045Z,87.48
2023-06-11T05:05:19.746Z,87.42
2023-06-11T05:06:23.084Z,87.32
2023-06-11T05:07:27.352Z,86.98
2023-06-11T05:08:30.932Z,86.87
2023-06-11T05:09:37.247Z,86.92
2023-06-11T05:10:40.986Z,87.09
2023-06-11T05:11:45.415Z,87.43
2023-06-11T05:12:52.143Z,87.74
2023-06-11T05:13:57.153Z,88.08
2023-06-11T05:15:01.191Z,88.68
2023-06-11T05:16:07.827Z,88.54
2023-06-11T05:17:12.435Z,88.48
2023-06-11T05:18:16.631Z,88.40
2023-06-11T05:19:20.048Z,88.29
2023-06-11T05:20:28.068Z,87.96
2023-06-11T05:21:31.498Z,87.43
2023-06-11T05:22:35.011Z,87.18
2023-06-11T05:23:41.145Z,87.01
2023-06-11T05:24:49.549Z,86.76
2023-06-11T05:25:52.901Z,86.16
2023-06-11T05:26:58.431Z,85.58
2023-06-11T05:28:08.048Z,85.29
2023-06-11T05:29:12.380Z,84.99
2023-06-11T05:30:17.600Z,84.75
2023-06-11T05:31:23.195Z,84.45
2023-06-11T05:32:27.593Z,83.94
2023-06-11T05:33:32.387Z,83.89
2023-06-11T05:34:36.392Z,83.71
2023-06-11T05:35:44.635Z,83.82
2023-06-11T05:36:50.346Z,83.74
2023-06-11T05:37:58.047Z,83.62
2023-06-11T05:39:02.592Z,83.24
2023-06-11T05:40:08.111Z,83.26
2023-06-11T05:41:11.989Z,83.16
2023-06-11T05:42:15.704Z,82.49
2023-06-11T05:43:21.095Z,81.96
2023-06-11T05:44:24.641Z,81.76
2023-06-11T05:45:28.399Z,81.23
2023-06-11T05:46:32.579Z,80.16
2023-06-11T05:47:37.836Z,78.07
2023-06-11T05:48:42.830Z,76.58
2023-06-11T05:49:47.206Z,73.96
2023-06-11T05:50:50.987Z,71.72
2023-06-11T05:51:54.609Z,69.05
2023-06-11T05:52:58.291Z,67.81
2023-06-11T05:54:02.003Z,65.61
2023-06-11T05:55:06.718Z,63.25
2023-06-11T05:56:10.873Z,62.15
2023-06-11T05:57:26.525Z,59.70
2023-06-11T05:58:36.358Z,57.96
2023-06-11T05:59:41.174Z,57.32
2023-06-11T06:00:44.651Z,57.14
2023-06-11T06:01:47.966Z,55.85
2023-06-11T06:02:54.802Z,55.06
2023-06-11T06:04:04.045Z,54.15
2023-06-11T06:05:08.906Z,53.03
2023-06-11T06:06:12.534Z,52.79
2023-06-11T06:07:16.543Z,52.12
2023-06-11T06:08:20.914Z,51.77
2023-06-11T06:09:24.377Z,50.59
2023-06-11T06:10:28.720Z,49.97
2023-06-11T06:11:32.816Z,48.97
2023-06-11T06:12:36.335Z,48.61
2023-06-11T06:13:40.329Z,49.12
2023-06-11T06:14:44.202Z,48.77
2023-06-11T06:15:47.385Z,49.69
2023-06-11T06:16:50.499Z,50.16
2023-06-11T06:17:59.014Z,51.05
2023-06-11T06:19:12.264Z,51.67
2023-06-11T06:20:15.878Z,52.31
2023-06-11T06:21:19.576Z,54.19
2023-06-11T06:22:22.788Z,54.45
2023-06-11T06:23:26.481Z,55.85
2023-06-11T06:24:37.850Z,56.58
2023-06-11T06:25:43.319Z,57.12
2023-06-11T06:26:53.429Z,57.92
2023-06-11T06:27:56.599Z,59.01
2023-06-11T06:29:00.720Z,59.52
2023-06-11T06:30:05.692Z,60.19
2023-06-11T06:31:09.517Z,60.67
2023-06-11T06:32:14.340Z,61.09
2023-06-11T06:33:18.164Z,61.66
2023-06-11T06:34:21.866Z,61.93
2023-06-11T06:35:25.412Z,62.13
2023-06-11T06:36:29.015Z,62.66
2023-06-11T06:37:33.262Z,62.49
2023-06-11T06:38:37.827Z,62.67
2023-06-11T06:39:42.827Z,62.73
2023-06-11T06:40:46.435Z,62.33
2023-06-11T06:41:49.483Z,62.32
2023-06-11T06:42:57.251Z,62.89
2023-06-11T06:44:06.605Z,63.28
2023-06-11T06:45:12.144Z,63.04
2023-06-11T06:46:16.260Z,62.97
2023-06-11T06:47:21.407Z,63.14
2023-06-11T06:48:25.293Z,63.37
2023-06-11T06:49:31.332Z,64.15
2023-06-11T06:50:34.959Z,64.41
2023-06-11T06:51:39.477Z,64.28
2023-06-11T06:52:43.344Z,64.35
2023-06-11T06:53:48.494Z,64.72
2023-06-11T06:54:53.070Z,64.62
2023-06-11T06:55:56.820Z,64.79
2023-06-11T06:57:00.682Z,65.07
2023-06-11T06:58:04.297Z,65.27
2023-06-11T06:59:08.729Z,65.27
2023-06-11T07:00:16.794Z,64.80
2023-06-11T07:01:21.093Z,65.06
2023-06-11T07:02:25.118Z,65.24
2023-06-11T07:03:29.604Z,64.92
2023-06-11T07:04:33.300Z,64.66
2023-06-11T07:05:36.494Z,64.74
2023-06-11T07:06:40.632Z,64.88
2023-06-11T07:07:44.989Z,64.89
2023-06-11T07:08:48.800Z,64.77
2023-06-11T07:09:52.712Z,64.47
2023-06-11T07:10:56.860Z,64.22
2023-06-11T07:12:14.798Z,64.46
2023-06-11T07:13:18.464Z,63.91
2023-06-11T07:14:22.381Z,63.19
2023-06-11T07:15:25.875Z,62.85
2023-06-11T07:16:29.511Z,62.35
2023-06-11T07:17:37.041Z,61.89
2023-06-11T07:18:41.119Z,61.71
2023-06-11T07:19:44.320Z,61.29
2023-06-11T07:20:48.422Z,60.92
2023-06-11T07:21:52.066Z,61.29
2023-06-11T07:22:55.830Z,60.52
2023-06-11T07:24:00.589Z,60.62
2023-06-11T07:25:04.155Z,60.75
2023-06-11T07:26:07.385Z,60.79
2023-06-11T07:27:11.998Z,60.34
2023-06-11T07:28:15.929Z,60.57
2023-06-11T07:29:21.755Z,60.36
2023-06-11T07:30:26.462Z,60.03
2023-06-11T07:31:29.736Z,59.78
2023-06-11T07:32:33.411Z,59.44
2023-06-11T07:33:37.399Z,59.37
2023-06-11T07:34:42.148Z,59.12
2023-06-11T07:35:48.881Z,59.15
2023-06-11T07:36:52.604Z,58.79
2023-06-11T07:37:57.742Z,58.70
2023-06-11T07:39:01.779Z,58.23
2023-06-11T07:40:07.626Z,57.71
2023-06-11T07:41:12.005Z,57.53
2023-06-11T07:42:15.252Z,58.17
2023-06-11T07:43:18.874Z,58.65
2023-06-11T07:44:22.202Z,58.19
2023-06-11T07:45:25.306Z,58.73
2023-06-11T07:46:28.590Z,58.67
2023-06-11T07:47:32.370Z,58.92
2023-06-11T07:48:36.161Z,58.93
2023-06-11T07:49:39.882Z,59.05
2023-06-11T07:50:43.794Z,59.30
2023-06-11T07:51:50.420Z,58.72
2023-06-11T07:52:55.318Z,59.09
2023-06-11T07:54:02.329Z,58.84
2023-06-11T07:55:05.670Z,58.53
2023-06-11T07:56:09.176Z,57.54
2023-06-11T07:57:14.900Z,56.40
2023-06-11T07:58:19.979Z,55.54
2023-06-11T07:59:23.077Z,53.48
2023-06-11T08:00:26.641Z,53.96
2023-06-11T08:01:29.864Z,55.16
2023-06-11T08:02:33.509Z,54.94
2023-06-11T08:03:37.196Z,55.99
2023-06-11T08:04:40.205Z,58.19
2023-06-11T08:05:43.557Z,58.81
2023-06-11T08:06:46.882Z,59.41
2023-06-11T08:07:50.692Z,59.15
2023-06-11T08:08:54.550Z,59.66
2023-06-11T08:09:58.324Z,60.50
2023-06-11T08:11:01.765Z,60.80
2023-06-11T08:12:08.820Z,60.78
2023-06-11T08:13:12.542Z,61.08
2023-06-11T08:14:15.661Z,60.69
2023-06-11T08:15:19.444Z,59.87
2023-06-11T08:16:22.638Z,60.49
2023-06-11T08:17:25.816Z,60.22
2023-06-11T08:18:29.406Z,59.23
2023-06-11T08:19:33.182Z,57.67
2023-06-11T08:20:36.757Z,57.74
2023-06-11T08:21:40.218Z,56.16
2023-06-11T08:22:43.924Z,55.18
2023-06-11T08:23:47.665Z,54.70
2023-06-11T08:24:51.173Z,54.32
2023-06-11T08:25:56.222Z,53.78
2023-06-11T08:27:00.085Z,54.19
2023-06-11T08:28:03.913Z,54.20
2023-06-11T08:29:07.752Z,52.41
2023-06-11T08:30:11.497Z,52.41
2023-06-11T08:31:15.248Z,52.64
2023-06-11T08:32:18.276Z,52.71
2023-06-11T08:33:22.039Z,52.55
2023-06-11T08:34:25.714Z,51.59
2023-06-11T08:35:29.715Z,51.35
2023-06-11T08:36:33.808Z,48.41
2023-06-11T08:37:37.111Z,47.56
2023-06-11T08:38:41.039Z,45.44
2023-06-11T08:39:44.538Z,44.62
2023-06-11T08:40:48.451Z,44.50
2023-06-11T08:41:52.173Z,42.85
2023-06-11T08:42:55.618Z,42.99
2023-06-11T08:43:59.448Z,43.55
2023-06-11T08:45:03.671Z,42.83
2023-06-11T08:46:07.434Z,43.07
2023-06-11T08:47:13.604Z,44.73
2023-06-11T08:48:20.835Z,45.29
2023-06-11T08:49:25.088Z,46.09
2023-06-11T08:50:28.681Z,46.41
2023-06-11T08:51:37.837Z,46.04
2023-06-11T08:52:41.507Z,45.82
2023-06-11T08:53:44.868Z,45.54
2023-06-11T08:54:48.570Z,45.31
2023-06-11T08:55:52.232Z,45.43
2023-06-11T08:56:55.433Z,45.77
2023-06-11T08:57:58.971Z,45.43
2023-06-11T08:59:02.641Z,45.51
2023-06-11T09:00:09.541Z,45.85
2023-06-11T09:01:13.663Z,46.35
2023-06-11T09:02:16.895Z,45.84
2023-06-11T09:03:20.416Z,45.70
2023-06-11T09:04:24.365Z,46.19
2023-06-11T09:05:28.041Z,46.73
2023-06-11T09:06:31.995Z,46.18
2023-06-11T09:07:37.406Z,45.78
2023-06-11T09:08:41.212Z,44.41
2023-06-11T09:09:44.424Z,43.89
2023-06-11T09:10:53.449Z,43.06
2023-06-11T09:11:56.455Z,41.32
2023-06-11T09:13:01.087Z,40.49
2023-06-11T09:14:04.691Z,39.61
2023-06-11T09:15:08.213Z,39.70
2023-06-11T09:16:11.841Z,39.87
2023-06-11T09:17:17.813Z,40.31
2023-06-11T09:18:22.008Z,40.28
2023-06-11T09:19:25.487Z,40.00
2023-06-11T09:20:29.070Z,39.77
2023-06-11T09:21:32.261Z,38.28
2023-06-11T09:22:37.184Z,37.35
2023-06-11T09:23:40.833Z,35.67
2023-06-11T09:24:44.225Z,34.79
2023-06-11T09:25:48.005Z,34.09
2023-06-11T09:26:54.064Z,33.55
2023-06-11T09:27:57.402Z,32.92
2023-06-11T09:29:04.332Z,32.92
2023-06-11T09:30:10.096Z,31.52
2023-06-11T09:31:14.260Z,31.02
2023-06-11T09:33:28.839Z,29.14
2023-06-11T09:34:32.664Z,28.43
2023-06-11T09:35:35.981Z,27.23
2023-06-11T09:36:39.553Z,27.02
2023-06-11T09:38:03.826Z,26.06
2023-06-11T09:39:07.479Z,26.21
2023-06-11T09:40:12.742Z,26.48
2023-06-11T09:41:19.511Z,26.14
2023-06-11T09:42:25.894Z,26.19
2023-06-11T09:43:29.392Z,25.87
2023-06-11T09:44:35.828Z,26.08
2023-06-11T09:45:39.503Z,27.15
2023-06-11T09:46:43.720Z,26.55
2023-06-11T09:47:48.405Z,27.71
2023-06-11T09:48:52.334Z,28.43
2023-06-11T09:49:56.074Z,28.77
2023-06-11T09:50:59.742Z,29.66
2023-06-11T09:52:03.121Z,30.69
2023-06-11T09:53:07.888Z,31.17
2023-06-11T09:54:16.926Z,31.43
2023-06-11T09:55:20.391Z,31.52
2023-06-11T09:56:23.927Z,31.82
2023-06-11T09:57:27.727Z,31.61
2023-06-11T09:58:31.151Z,32.19
2023-06-11T09:59:34.475Z,32.28
2023-06-11T10:00:38.000Z,32.71
2023-06-11T10:01:42.960Z,32.64
2023-06-11T10:02:46.527Z,32.70
2023-06-11T10:03:49.778Z,32.11
2023-06-11T10:04:52.947Z,32.38
2023-06-11T10:05:56.717Z,32.33
2023-06-11T10:07:00.231Z,31.66
2023-06-11T10:08:07.237Z,30.96
2023-06-11T10:09:12.801Z,30.30
2023-06-11T10:10:21.348Z,30.86
2023-06-11T10:11:25.290Z,31.21
2023-06-11T10:12:34.330Z,32.47
2023-06-11T10:13:39.082Z,33.62
2023-06-11T10:14:42.084Z,34.05
2023-06-11T10:15:45.365Z,34.31
2023-06-11T10:16:52.555Z,35.62
2023-06-11T10:17:56.352Z,36.42
2023-06-11T10:19:09.705Z,37.74
2023-06-11T10:20:33.506Z,38.12
2023-06-11T10:21:51.117Z,38.36
2023-06-11T10:23:07.375Z,36.82
2023-06-11T10:24:28.389Z,34.93
2023-06-11T10:25:41.437Z,33.47
2023-06-11T10:26:45.631Z,32.77
2023-06-11T10:27:48.648Z,33.12
2023-06-11T10:28:53.022Z,33.24
2023-06-11T10:29:56.918Z,33.49
2023-06-11T10:31:00.125Z,32.53
2023-06-11T10:32:03.944Z,31.49
2023-06-11T10:33:07.779Z,31.02
2023-06-11T10:34:15.451Z,31.12
2023-06-11T10:35:25.964Z,31.59
2023-06-11T10:36:37.366Z,31.48
2023-06-11T10:37:42.797Z,32.07
2023-06-11T10:38:46.013Z,32.91
2023-06-11T10:39:52.677Z,32.87
2023-06-11T10:41:03.345Z,32.43
2023-06-11T10:42:07.484Z,30.35
2023-06-11T10:43:22.070Z,31.44
2023-06-11T10:44:28.464Z,31.38
2023-06-11T10:45:38.536Z,31.36
2023-06-11T10:46:53.751Z,31.62
2023-06-11T10:48:01.541Z,32.54
2023-06-11T10:49:13.799Z,32.67
2023-06-11T10:50:27.051Z,33.07
2023-06-11T10:51:40.472Z,34.33
2023-06-11T10:52:57.553Z,35.31
2023-06-11T10:54:00.963Z,36.20
2023-06-11T10:55:04.559Z,35.07
2023-06-11T10:56:16.675Z,34.90
2023-06-11T10:57:21.509Z,34.43
2023-06-11T10:58:25.652Z,35.05
2023-06-11T10:59:29.269Z,34.91
2023-06-11T11:00:35.808Z,35.40
2023-06-11T11:01:39.132Z,35.57
2023-06-11T11:02:42.415Z,35.49
2023-06-11T11:03:45.852Z,35.03
2023-06-11T11:04:52.622Z,33.97
2023-06-11T11:05:55.644Z,34.19
2023-06-11T11:07:10.495Z,34.22
2023-06-11T11:08:16.815Z,33.82
2023-06-11T11:09:23.701Z,33.18
2023-06-11T11:10:27.731Z,32.62
2023-06-11T11:11:31.481Z,31.80
2023-06-11T11:12:40.128Z,31.26
2023-06-11T11:13:43.598Z,31.76
2023-06-11T11:14:46.973Z,31.60
2023-06-11T11:15:50.845Z,32.24
2023-06-11T11:16:54.357Z,33.06
2023-06-11T11:17:57.710Z,32.88
2023-06-11T11:19:01.218Z,32.04
2023-06-11T11:20:12.284Z,31.57
2023-06-11T11:21:16.660Z,31.92
2023-06-11T11:22:20.142Z,31.62
2023-06-11T11:23:26.096Z,31.25
2023-06-11T11:24:29.300Z,30.59
2023-06-11T11:25:34.426Z,29.68
2023-06-11T11:26:44.296Z,29.03
2023-06-11T11:27:49.170Z,28.33
2023-06-11T11:28:53.337Z,28.41
2023-06-11T11:30:03.238Z,28.62
2023-06-11T11:31:08.657Z,28.97
2023-06-11T11:32:12.421Z,29.40
2023-06-11T11:33:16.426Z,29.35
2023-06-11T11:34:21.604Z,29.09
2023-06-11T11:35:27.326Z,29.17
2023-06-11T11:36:31.198Z,28.92
2023-06-11T11:37:35.446Z,29.86
2023-06-11T11:38:39.207Z,30.25
2023-06-11T11:39:42.795Z,29.83
2023-06-11T11:40:46.266Z,29.71
2023-06-11T11:41:52.859Z,29.74
2023-06-11T11:43:00.159Z,29.59
2023-06-11T11:44:03.768Z,29.50
2023-06-11T11:45:08.265Z,29.70
2023-06-11T11:46:26.306Z,30.78
2023-06-11T11:47:30.052Z,32.98
2023-06-11T11:48:34.659Z,33.71
2023-06-11T11:49:37.848Z,34.89
2023-06-11T11:50:42.177Z,35.83
2023-06-11T11:51:53.119Z,36.40
2023-06-11T11:53:07.305Z,36.77
2023-06-11T11:54:15.165Z,37.20
2023-06-11T11:55:18.830Z,37.33
2023-06-11T11:56:22.008Z,37.13
2023-06-11T11:57:27.969Z,36.44
2023-06-11T11:58:38.298Z,36.21
2023-06-11T11:59:41.927Z,36.75
2023-06-11T12:01:03.869Z,36.68
2023-06-11T12:02:08.474Z,37.29
2023-06-11T12:03:12.652Z,37.91
2023-06-11T12:04:16.127Z,37.79
2023-06-11T12:05:19.835Z,37.81
2023-06-11T12:06:26.765Z,38.63
2023-06-11T12:07:30.057Z,39.52
2023-06-11T12:08:33.717Z,39.92
2023-06-11T12:09:40.112Z,40.27
2023-06-11T12:10:43.589Z,40.28
2023-06-11T12:12:03.756Z,40.62
2023-06-11T12:13:08.782Z,41.70
2023-06-11T12:14:12.387Z,42.57
2023-06-11T12:15:15.860Z,42.45
2023-06-11T12:16:19.069Z,43.21
2023-06-11T12:17:22.247Z,43.25
2023-06-11T12:18:25.858Z,43.04
2023-06-11T12:19:31.871Z,42.99
2023-06-11T12:20:34.849Z,43.14
2023-06-11T12:21:38.073Z,43.08
2023-06-11T12:22:41.871Z,43.14
2023-06-11T12:23:45.710Z,43.52
2023-06-11T12:24:49.698Z,43.82
2023-06-11T12:25:53.190Z,43.26
2023-06-11T12:26:56.437Z,43.41
2023-06-11T12:28:00.720Z,43.37
2023-06-11T12:29:04.540Z,43.54
2023-06-11T12:30:09.244Z,43.70
2023-06-11T12:31:12.738Z,44.01
2023-06-11T12:32:16.615Z,44.01
2023-06-11T12:33:20.490Z,44.42
2023-06-11T12:34:24.414Z,44.53
2023-06-11T12:35:32.289Z,44.19
2023-06-11T12:36:35.757Z,44.77
2023-06-11T12:37:38.716Z,44.68
2023-06-11T12:38:42.133Z,44.30
2023-06-11T12:39:45.597Z,43.83
2023-06-11T12:40:50.136Z,43.22
2023-06-11T12:41:53.349Z,43.33
2023-06-11T12:43:01.058Z,42.70
2023-06-11T12:44:05.047Z,43.14
2023-06-11T12:45:09.404Z,43.21
2023-06-11T12:46:13.252Z,42.88
2023-06-11T12:47:17.185Z,43.11
2023-06-11T12:48:20.332Z,42.65
2023-06-11T12:49:24.688Z,42.01
2023-06-11T12:50:28.380Z,42.16
2023-06-11T12:51:32.782Z,41.50
2023-06-11T12:52:36.045Z,41.32
2023-06-11T12:53:39.677Z,41.25
2023-06-11T12:54:43.510Z,41.10
2023-06-11T12:55:47.159Z,40.96
2023-06-11T12:56:51.008Z,40.62
2023-06-11T12:57:54.804Z,39.91
2023-06-11T12:58:57.877Z,39.95
2023-06-11T13:00:01.265Z,39.30
2023-06-11T13:01:05.192Z,38.98
2023-06-11T13:02:08.865Z,38.86
2023-06-11T13:03:12.416Z,38.64
2023-06-11T13:04:16.040Z,38.21
2023-06-11T13:05:19.774Z,37.75
2023-06-11T13:06:23.306Z,37.55
2023-06-11T13:07:27.315Z,37.54
2023-06-11T13:08:32.045Z,37.35
2023-06-11T13:09:35.358Z,37.31
2023-06-11T13:10:40.931Z,37.33
2023-06-11T13:11:44.254Z,37.13
2023-06-11T13:12:47.760Z,38.06
2023-06-11T13:13:51.600Z,38.01
2023-06-11T13:14:54.987Z,38.77
2023-06-11T13:15:58.054Z,37.91
2023-06-11T13:17:02.314Z,38.35
2023-06-11T13:18:05.576Z,37.71
2023-06-11T13:19:08.738Z,37.41
2023-06-11T13:20:13.684Z,37.02
2023-06-11T13:21:17.836Z,37.42
2023-06-11T13:22:21.387Z,37.22
2023-06-11T13:23:28.289Z,37.37
2023-06-11T13:24:32.050Z,37.79
2023-06-11T13:25:35.738Z,37.48
2023-06-11T13:26:39.359Z,37.59
2023-06-11T13:27:42.891Z,37.42
2023-06-11T13:28:46.631Z,37.18
2023-06-11T13:29:50.272Z,36.00
2023-06-11T13:30:54.770Z,35.89
2023-06-11T13:31:58.384Z,36.11
2023-06-11T13:33:02.373Z,36.07
2023-06-11T13:34:06.072Z,36.26
2023-06-11T13:35:09.855Z,35.87
2023-06-11T13:36:13.323Z,35.73
2023-06-11T13:37:16.214Z,35.38
2023-06-11T13:38:19.344Z,36.00
2023-06-11T13:39:23.152Z,36.44
2023-06-11T13:40:26.706Z,36.74
2023-06-11T13:41:30.254Z,37.25
2023-06-11T13:42:33.406Z,37.56
2023-06-11T13:43:36.679Z,37.93
2023-06-11T13:44:40.335Z,38.36
2023-06-11T13:45:45.502Z,38.55
2023-06-11T13:46:48.502Z,38.05
2023-06-11T13:47:52.236Z,38.15
2023-06-11T13:48:55.472Z,38.79
2023-06-11T13:49:59.153Z,38.73
2023-06-11T13:51:02.735Z,39.22
2023-06-11T13:52:06.689Z,38.61
2023-06-11T13:53:10.423Z,37.46
2023-06-11T13:54:13.802Z,36.36
2023-06-11T13:55:17.429Z,36.37
2023-06-11T13:56:21.224Z,35.29
2023-06-11T13:57:29.394Z,36.44
2023-06-11T13:58:32.701Z,36.85
2023-06-11T13:59:36.047Z,37.28